createdAt,value
2023-03-24T00:01:26.567Z,10.45
2023-03-24T00:03:55.154Z,8.90
2023-03-24T00:06:23.963Z,8.77
2023-03-24T00:08:53.453Z,7.97
2023-03-24T00:11:22.140Z,7.78
2023-03-24T00:13:51.062Z,9.98
2023-03-24T00:16:21.912Z,10.02
2023-03-24T00:18:54.248Z,10.10
2023-03-24T00:21:24.798Z,9.27
2023-03-24T00:23:55.668Z,10.18
2023-03-24T00:26:25.052Z,9.02
2023-03-24T00:28:54.392Z,12.82
2023-03-24T00:31:25.040Z,9.35
2023-03-24T00:33:55.469Z,9.80
2023-03-24T00:36:24.938Z,12.25
2023-03-24T00:38:53.772Z,15.45
2023-03-24T00:41:22.335Z,7.90
2023-03-24T00:43:51.996Z,6.88
2023-03-24T00:46:29.298Z,9.85
2023-03-24T00:49:03.601Z,8.27
2023-03-24T00:51:33.045Z,11.35
2023-03-24T00:54:01.999Z,8.77
2023-03-24T00:56:34.117Z,7.75
2023-03-24T00:59:03.163Z,7.35
2023-03-24T01:01:33.178Z,8.15
2023-03-24T01:04:03.214Z,9.25
2023-03-24T01:06:31.707Z,8.73
2023-03-24T01:09:04.716Z,7.80
2023-03-24T01:11:37.771Z,8.30
2023-03-24T01:14:06.427Z,8.82
2023-03-24T01:16:34.973Z,13.70
2023-03-24T01:19:05.605Z,8.68
2023-03-24T01:21:35.263Z,10.50
2023-03-24T01:24:05.107Z,12.13
2023-03-24T01:26:33.618Z,9.25
2023-03-24T01:29:02.542Z,9.27
2023-03-24T01:31:31.199Z,7.07
2023-03-24T01:33:59.821Z,11.77
2023-03-24T01:36:29.847Z,8.50
2023-03-24T01:39:01.213Z,8.68
2023-03-24T01:41:33.309Z,13.15
2023-03-24T01:44:01.931Z,10.02
2023-03-24T01:46:33.420Z,12.45
2023-03-24T01:49:03.242Z,9.75
2023-03-24T01:51:35.857Z,9.52
2023-03-24T01:54:06.759Z,8.60
2023-03-24T01:56:37.110Z,12.15
2023-03-24T01:59:08.068Z,8.95
2023-03-24T02:02:02.788Z,11.18
2023-03-24T02:04:40.164Z,9.77
2023-03-24T02:07:14.108Z,10.77
2023-03-24T02:09:42.870Z,9.07
2023-03-24T02:12:11.326Z,11.55
2023-03-24T02:14:40.457Z,8.48
2023-03-24T02:17:16.311Z,10.05
2023-03-24T02:20:18.398Z,8.85
2023-03-24T02:23:15.160Z,10.25
2023-03-24T02:26:04.783Z,9.40
2023-03-24T02:28:38.118Z,13.50
2023-03-24T02:31:24.353Z,8.45
2023-03-24T02:34:12.217Z,8.90
2023-03-24T02:36:50.926Z,9.55
2023-03-24T02:39:46.886Z,7.93
2023-03-24T02:42:23.084Z,9.57
2023-03-24T02:44:54.039Z,13.63
2023-03-24T02:47:26.610Z,11.48
2023-03-24T02:49:58.935Z,9.55
2023-03-24T02:52:33.022Z,10.52
2023-03-24T02:55:03.311Z,8.55
2023-03-24T02:57:36.201Z,8.73
2023-03-24T03:00:47.360Z,8.98
2023-03-24T03:03:53.672Z,9.70
2023-03-24T03:06:28.981Z,10.98
2023-03-24T03:08:59.140Z,10.15
2023-03-24T03:11:27.645Z,12.32
2023-03-24T03:14:01.170Z,11.73
2023-03-24T03:16:34.656Z,12.05
2023-03-24T03:19:10.052Z,8.85
2023-03-24T03:21:41.557Z,10.18
2023-03-24T03:24:11.395Z,10.93
2023-03-24T03:26:40.251Z,10.15
2023-03-24T03:29:13.213Z,13.00
2023-03-24T03:31:43.099Z,9.07
2023-03-24T03:34:14.074Z,11.00
2023-03-24T03:36:47.754Z,11.82
2023-03-24T03:39:18.392Z,11.00
2023-03-24T03:41:48.002Z,11.27
2023-03-24T03:44:18.062Z,12.60
2023-03-24T03:46:46.712Z,9.57
2023-03-24T03:49:22.872Z,10.80
2023-03-24T03:51:51.949Z,9.88
2023-03-24T03:54:21.059Z,12.82
2023-03-24T03:56:50.556Z,14.75
2023-03-24T03:59:33.965Z,10.23
2023-03-24T04:02:12.574Z,13.75
2023-03-24T04:05:03.256Z,13.75
2023-03-24T04:07:51.693Z,14.98
2023-03-24T04:10:45.351Z,12.73
2023-03-24T04:13:23.275Z,11.68
2023-03-24T04:16:16.573Z,11.77
2023-03-24T04:19:15.006Z,14.80
2023-03-24T04:21:54.991Z,13.23
2023-03-24T04:24:29.211Z,13.73
2023-03-24T04:27:09.338Z,14.13
2023-03-24T04:29:42.537Z,12.63
2023-03-24T04:32:19.583Z,14.43
2023-03-24T04:34:54.447Z,16.42
2023-03-24T04:37:38.590Z,17.58
2023-03-24T04:40:17.691Z,17.35
2023-03-24T04:42:52.626Z,17.13
2023-03-24T04:45:25.949Z,16.27
2023-03-24T04:48:25.375Z,22.02
2023-03-24T04:51:17.263Z,17.33
2023-03-24T04:54:01.857Z,17.45
2023-03-24T04:56:36.870Z,16.90
2023-03-24T04:59:13.036Z,17.80
2023-03-24T05:01:41.903Z,17.88
2023-03-24T05:04:32.122Z,17.73
2023-03-24T05:07:08.828Z,14.95
2023-03-24T05:09:37.389Z,15.60
2023-03-24T05:12:06.313Z,14.27
2023-03-24T05:14:47.886Z,17.83
2023-03-24T05:17:17.473Z,17.52
2023-03-24T05:19:47.364Z,16.40
2023-03-24T05:22:15.936Z,18.30
2023-03-24T05:24:44.421Z,18.65
2023-03-24T05:27:13.034Z,18.55
2023-03-24T05:29:41.646Z,15.77
2023-03-24T05:32:13.438Z,17.83
2023-03-24T05:34:42.603Z,21.13
2023-03-24T05:37:17.712Z,19.20
2023-03-24T05:39:50.737Z,24.30
2023-03-24T05:42:34.483Z,19.52
2023-03-24T05:45:06.549Z,21.60
2023-03-24T05:47:35.423Z,19.75
2023-03-24T05:50:04.020Z,20.77
2023-03-24T05:52:35.405Z,17.52
2023-03-24T05:55:28.398Z,15.63
2023-03-24T05:58:04.930Z,19.45
2023-03-24T06:00:40.861Z,18.15
2023-03-24T06:03:17.445Z,17.38
2023-03-24T06:05:53.006Z,18.88
2023-03-24T06:08:24.684Z,18.90
2023-03-24T06:10:53.741Z,18.55
2023-03-24T06:13:23.911Z,18.00
2023-03-24T06:15:54.769Z,16.52
2023-03-24T06:18:43.690Z,19.35
2023-03-24T06:21:33.079Z,19.67
2023-03-24T06:24:04.399Z,17.63
2023-03-24T06:26:34.475Z,16.85
2023-03-24T06:29:04.501Z,20.35
2023-03-24T06:31:37.652Z,15.50
2023-03-24T06:34:06.849Z,23.92
2023-03-24T06:36:35.769Z,19.42
2023-03-24T06:39:07.756Z,21.48
2023-03-24T06:41:36.945Z,21.58
2023-03-24T06:44:05.720Z,17.80
2023-03-24T06:46:34.710Z,22.25
2023-03-24T06:49:03.500Z,17.95
2023-03-24T06:51:32.093Z,14.98
2023-03-24T06:54:01.140Z,14.20
2023-03-24T06:56:31.506Z,15.15
2023-03-24T06:59:02.435Z,17.35
2023-03-24T07:01:36.110Z,20.80
2023-03-24T07:04:26.076Z,15.10
2023-03-24T07:07:12.573Z,17.25
2023-03-24T07:09:47.888Z,17.33
2023-03-24T07:12:18.242Z,12.48
2023-03-24T07:14:46.881Z,16.60
2023-03-24T07:17:15.828Z,15.45
2023-03-24T07:19:59.120Z,17.10
2023-03-24T07:22:33.774Z,14.60
2023-03-24T07:25:28.711Z,19.55
2023-03-24T07:28:14.854Z,20.58
2023-03-24T07:30:43.506Z,17.63
2023-03-24T07:33:13.397Z,15.57
2023-03-24T07:35:46.072Z,14.63
2023-03-24T07:38:14.965Z,21.27
2023-03-24T07:40:44.425Z,15.82
2023-03-24T07:43:14.794Z,13.68
2023-03-24T07:45:53.643Z,21.27
2023-03-24T07:48:22.339Z,17.20
2023-03-24T07:50:54.160Z,16.35
2023-03-24T07:53:41.473Z,15.85
2023-03-24T07:56:10.320Z,19.38
2023-03-24T07:58:48.053Z,18.42
2023-03-24T08:01:31.935Z,15.82
2023-03-24T08:04:04.840Z,16.50
2023-03-24T08:07:03.096Z,16.13
2023-03-24T08:09:31.942Z,18.98
2023-03-24T08:12:04.353Z,20.13
2023-03-24T08:14:43.768Z,19.80
2023-03-24T08:17:12.697Z,17.00
2023-03-24T08:19:56.191Z,19.70
2023-03-24T08:22:28.081Z,17.13
2023-03-24T08:24:56.562Z,15.43
2023-03-24T08:27:25.092Z,15.20
2023-03-24T08:29:54.950Z,14.77
2023-03-24T08:32:23.498Z,17.15
2023-03-24T08:34:52.002Z,15.82
2023-03-24T08:37:20.785Z,21.60
2023-03-24T08:39:49.644Z,14.98
2023-03-24T08:42:18.177Z,16.05
2023-03-24T08:44:46.677Z,14.48
2023-03-24T08:47:16.586Z,14.60
2023-03-24T08:49:45.036Z,14.35
2023-03-24T08:52:13.646Z,14.50
2023-03-24T08:54:42.482Z,16.77
2023-03-24T08:57:11.042Z,15.73
2023-03-24T08:59:39.926Z,17.48
2023-03-24T09:02:08.476Z,14.95
2023-03-24T09:04:38.312Z,14.93
2023-03-24T09:07:07.128Z,15.07
2023-03-24T09:09:35.589Z,16.90
2023-03-24T09:12:04.227Z,13.13
2023-03-24T09:14:32.745Z,14.43
2023-03-24T09:17:01.318Z,14.13
2023-03-24T09:19:29.774Z,15.35
2023-03-24T09:21:59.767Z,16.42
2023-03-24T09:24:28.218Z,15.23
2023-03-24T09:26:56.739Z,14.35
2023-03-24T09:29:25.256Z,14.95
2023-03-24T09:31:54.164Z,18.42
2023-03-24T09:34:22.625Z,17.90
2023-03-24T09:36:51.660Z,15.20
2023-03-24T09:39:21.488Z,14.80
2023-03-24T09:41:50.662Z,13.35
2023-03-24T09:44:24.195Z,13.38
2023-03-24T09:46:54.163Z,15.98
2023-03-24T09:49:25.304Z,13.13
2023-03-24T09:51:57.901Z,13.52
2023-03-24T09:54:36.010Z,10.10
2023-03-24T09:57:05.527Z,14.63
2023-03-24T09:59:37.577Z,13.20
2023-03-24T10:02:12.500Z,10.00
2023-03-24T10:04:41.433Z,10.95
2023-03-24T10:07:15.453Z,11.70
2023-03-24T10:09:47.998Z,11.90
2023-03-24T10:12:22.210Z,9.93
2023-03-24T10:14:58.275Z,9.90
2023-03-24T10:17:31.522Z,11.65
2023-03-24T10:20:03.121Z,9.10
2023-03-24T10:22:35.399Z,10.80
2023-03-24T10:25:08.324Z,11.65
2023-03-24T10:27:38.974Z,11.40
2023-03-24T10:30:13.598Z,9.93
2023-03-24T10:32:43.801Z,11.85
2023-03-24T10:35:17.642Z,16.38
2023-03-24T10:37:46.424Z,11.85
2023-03-24T10:40:20.721Z,9.43
2023-03-24T10:43:07.143Z,14.52
2023-03-24T10:45:39.247Z,11.13
2023-03-24T10:48:09.582Z,10.88
2023-03-24T10:50:42.673Z,11.85
2023-03-24T10:53:11.833Z,17.90
2023-03-24T10:55:44.100Z,12.00
2023-03-24T10:58:19.441Z,13.82
2023-03-24T11:00:49.123Z,14.52
2023-03-24T11:03:19.071Z,10.93
2023-03-24T11:05:48.121Z,12.20
2023-03-24T11:08:27.575Z,10.68
2023-03-24T11:10:57.833Z,15.07
2023-03-24T11:13:30.309Z,13.05
2023-03-24T11:16:06.852Z,12.80
2023-03-24T11:18:35.634Z,14.40
2023-03-24T11:21:05.198Z,15.73
2023-03-24T11:23:34.613Z,14.60
2023-03-24T11:26:13.765Z,11.50
2023-03-24T11:28:46.422Z,11.93
2023-03-24T11:31:19.258Z,14.02
2023-03-24T11:33:56.694Z,13.35
2023-03-24T11:36:48.236Z,15.07
2023-03-24T11:39:19.229Z,14.43
2023-03-24T11:41:55.712Z,11.05
2023-03-24T11:44:25.395Z,13.00
2023-03-24T11:46:55.853Z,16.08
2023-03-24T11:49:27.830Z,15.90
2023-03-24T11:51:57.152Z,12.70
2023-03-24T11:54:31.142Z,16.77
2023-03-24T11:57:06.549Z,10.82
2023-03-24T11:59:40.087Z,14.32
2023-03-24T12:02:18.785Z,12.70
2023-03-24T12:04:53.175Z,8.25
2023-03-24T12:07:40.144Z,8.35
2023-03-24T12:10:16.771Z,11.15
2023-03-24T12:12:52.505Z,11.30
2023-03-24T12:15:28.442Z,10.15
2023-03-24T12:18:04.847Z,12.07
2023-03-24T12:20:36.109Z,13.95
2023-03-24T12:23:07.731Z,9.25
2023-03-24T12:25:50.469Z,10.85
2023-03-24T12:28:30.317Z,7.75
2023-03-24T12:31:04.483Z,9.23
2023-03-24T12:33:39.175Z,10.40
2023-03-24T12:36:24.709Z,11.88
2023-03-24T12:39:01.365Z,8.93
2023-03-24T12:41:37.688Z,13.88
2023-03-24T12:44:25.655Z,12.68
2023-03-24T12:47:04.078Z,7.40
2023-03-24T12:49:53.025Z,8.70
2023-03-24T12:52:36.423Z,10.30
2023-03-24T12:55:06.537Z,8.00
2023-03-24T12:57:39.104Z,7.63
2023-03-24T13:00:12.751Z,10.70
2023-03-24T13:02:46.808Z,5.72
2023-03-24T13:05:18.931Z,7.72
2023-03-24T13:07:48.491Z,7.65
2023-03-24T13:10:21.913Z,8.60
2023-03-24T13:12:54.654Z,7.10
2023-03-24T13:15:27.383Z,6.78
2023-03-24T13:17:57.504Z,6.70
2023-03-24T13:20:30.300Z,5.25
2023-03-24T13:23:00.875Z,7.18
2023-03-24T13:25:38.011Z,6.68
2023-03-24T13:28:12.156Z,5.90
2023-03-24T13:30:44.177Z,5.68
2023-03-24T13:33:17.200Z,7.18
2023-03-24T13:36:09.483Z,7.78
2023-03-24T13:38:42.306Z,6.03
2023-03-24T13:41:18.326Z,5.75
2023-03-24T13:43:49.521Z,5.13
2023-03-24T13:46:19.859Z,6.38
2023-03-24T13:48:52.565Z,5.32
2023-03-24T13:51:23.780Z,5.43
2023-03-24T13:53:57.058Z,7.75
2023-03-24T13:56:28.851Z,5.82
2023-03-24T13:59:24.900Z,4.55
2023-03-24T14:02:19.774Z,8.32
2023-03-24T14:04:49.171Z,4.07
2023-03-24T14:07:33.988Z,4.65
2023-03-24T14:10:03.664Z,5.72
2023-03-24T14:12:34.472Z,6.07
2023-03-24T14:15:20.673Z,5.13
2023-03-24T14:17:55.803Z,8.18
2023-03-24T14:20:33.384Z,5.60
2023-03-24T14:23:04.403Z,7.93
2023-03-24T14:25:34.396Z,4.70
2023-03-24T14:28:23.453Z,4.00
2023-03-24T14:31:03.653Z,4.10
2023-03-24T14:33:33.709Z,4.30
2023-03-24T14:36:06.588Z,5.90
2023-03-24T14:38:37.369Z,6.90
2023-03-24T14:41:09.831Z,5.18
2023-03-24T14:43:58.377Z,4.03
2023-03-24T14:46:51.969Z,7.38
2023-03-24T14:49:32.506Z,5.22
2023-03-24T14:52:04.248Z,5.30
2023-03-24T14:54:36.512Z,10.30
2023-03-24T14:57:05.638Z,5.32
2023-03-24T14:59:40.471Z,5.72
2023-03-24T15:02:18.291Z,4.05
2023-03-24T15:05:23.222Z,5.60
2023-03-24T15:08:11.768Z,7.15
2023-03-24T15:10:42.579Z,3.72
2023-03-24T15:13:36.548Z,4.93
2023-03-24T15:16:06.748Z,5.88
2023-03-24T15:18:35.353Z,9.52
2023-03-24T15:21:16.787Z,10.77
2023-03-24T15:23:48.464Z,4.60
2023-03-24T15:26:18.562Z,7.15
2023-03-24T15:28:47.024Z,8.73
2023-03-24T15:31:15.706Z,8.88
2023-03-24T15:33:45.755Z,7.28
2023-03-24T15:36:21.820Z,6.82
2023-03-24T15:38:52.386Z,9.30
2023-03-24T15:41:22.333Z,8.52
2023-03-24T15:43:53.464Z,8.65
2023-03-24T15:46:24.744Z,10.02
2023-03-24T15:48:53.725Z,6.85
2023-03-24T15:51:48.966Z,7.72
2023-03-24T15:54:25.726Z,6.80
2023-03-24T15:57:13.679Z,5.75
2023-03-24T15:59:45.789Z,7.75
2023-03-24T16:02:18.524Z,7.13
2023-03-24T16:04:54.354Z,7.90
2023-03-24T16:07:33.374Z,5.82
2023-03-24T16:10:06.168Z,8.20
2023-03-24T16:12:35.751Z,7.20
2023-03-24T16:15:05.784Z,5.05
2023-03-24T16:17:34.710Z,6.13
2023-03-24T16:20:08.969Z,8.75
2023-03-24T16:22:38.965Z,8.40
2023-03-24T16:25:07.942Z,6.50
2023-03-24T16:27:36.785Z,5.72
2023-03-24T16:30:13.353Z,8.63
2023-03-24T16:32:42.181Z,7.07
2023-03-24T16:35:11.358Z,8.75
2023-03-24T16:37:42.517Z,10.55
2023-03-24T16:40:22.297Z,9.52
2023-03-24T16:42:50.910Z,11.63
2023-03-24T16:45:19.511Z,11.43
2023-03-24T16:47:48.198Z,12.13
2023-03-24T16:50:27.531Z,7.13
2023-03-24T16:52:57.778Z,9.95
2023-03-24T16:55:26.394Z,7.22
2023-03-24T16:57:55.294Z,9.23
2023-03-24T17:00:24.137Z,11.15
2023-03-24T17:02:53.757Z,13.27
2023-03-24T17:05:24.607Z,9.70
2023-03-24T17:07:53.204Z,10.98
2023-03-24T17:10:23.605Z,8.48
2023-03-24T17:12:54.059Z,9.27
2023-03-24T17:15:25.304Z,8.95
2023-03-24T17:17:54.517Z,8.07
2023-03-24T17:20:24.027Z,7.95
2023-03-24T17:22:54.623Z,9.77
2023-03-24T17:25:24.919Z,10.25
2023-03-24T17:27:53.533Z,9.70
2023-03-24T17:30:27.723Z,16.88
2023-03-24T17:32:57.752Z,15.70
2023-03-24T17:35:26.694Z,13.52
2023-03-24T17:37:55.314Z,14.20
2023-03-24T17:40:25.183Z,10.82
2023-03-24T17:42:53.796Z,14.07
2023-03-24T17:45:22.439Z,12.75
2023-03-24T17:47:51.617Z,12.07
2023-03-24T17:50:20.633Z,13.75
2023-03-24T17:52:50.015Z,15.10
2023-03-24T17:55:19.341Z,15.20
2023-03-24T17:57:49.475Z,14.77
2023-03-24T18:00:23.059Z,11.68
2023-03-24T18:02:52.828Z,13.65
2023-03-24T18:05:21.836Z,12.73
2023-03-24T18:07:50.532Z,19.15
2023-03-24T18:10:19.099Z,15.02
2023-03-24T18:12:49.186Z,14.85
2023-03-24T18:15:17.755Z,20.45
2023-03-24T18:17:46.401Z,16.00
2023-03-24T18:20:15.072Z,13.90
2023-03-24T18:22:43.759Z,17.45
2023-03-24T18:25:13.563Z,16.58
2023-03-24T18:27:42.591Z,15.88
2023-03-24T18:30:14.259Z,13.25
2023-03-24T18:32:43.232Z,18.45
2023-03-24T18:35:16.367Z,19.83
2023-03-24T18:37:45.746Z,14.77
2023-03-24T18:40:15.755Z,13.48
2023-03-24T18:42:44.533Z,15.73
2023-03-24T18:45:17.539Z,14.27
2023-03-24T18:47:46.611Z,14.27
2023-03-24T18:50:15.526Z,14.77
2023-03-24T18:52:44.117Z,12.82
2023-03-24T18:55:14.438Z,16.42
2023-03-24T18:57:43.038Z,15.43
2023-03-24T19:00:15.236Z,13.10
2023-03-24T19:02:43.925Z,16.92
2023-03-24T19:05:14.210Z,14.82
2023-03-24T19:07:42.972Z,12.93
2023-03-24T19:10:11.615Z,14.95
2023-03-24T19:12:40.197Z,14.75
2023-03-24T19:15:08.952Z,13.38
2023-03-24T19:17:38.935Z,13.63
2023-03-24T19:20:09.337Z,12.52
2023-03-24T19:22:40.344Z,11.93
2023-03-24T19:25:09.477Z,14.77
2023-03-24T19:27:38.027Z,14.77
2023-03-24T19:30:08.752Z,10.35
2023-03-24T19:32:38.803Z,12.93
2023-03-24T19:35:08.278Z,12.25
2023-03-24T19:37:37.826Z,13.25
2023-03-24T19:40:11.592Z,12.80
2023-03-24T19:42:42.120Z,13.23
2023-03-24T19:45:11.673Z,15.00
2023-03-24T19:47:43.626Z,14.60
2023-03-24T19:50:13.196Z,14.23
2023-03-24T19:52:43.310Z,15.25
2023-03-24T19:55:13.086Z,16.67
2023-03-24T19:57:42.299Z,16.35
2023-03-24T20:00:14.987Z,15.57
2023-03-24T20:02:45.544Z,16.83
2023-03-24T20:05:14.748Z,17.40
2023-03-24T20:07:43.336Z,19.02
2023-03-24T20:10:12.360Z,19.23
2023-03-24T20:12:41.277Z,18.17
2023-03-24T20:15:11.020Z,18.70
2023-03-24T20:17:40.612Z,21.98
2023-03-24T20:20:12.273Z,20.38
2023-03-24T20:22:42.163Z,23.65
2023-03-24T20:25:11.365Z,22.92
2023-03-24T20:27:39.972Z,20.50
2023-03-24T20:30:09.473Z,21.77
2023-03-24T20:32:38.152Z,24.10
2023-03-24T20:35:06.840Z,23.65
2023-03-24T20:37:36.759Z,25.20
2023-03-24T20:40:05.842Z,24.05
2023-03-24T20:42:35.241Z,21.38
2023-03-24T20:45:03.759Z,18.95
2023-03-24T20:47:32.412Z,19.60
2023-03-24T20:50:01.344Z,17.98
2023-03-24T20:52:30.181Z,18.95
2023-03-24T20:55:01.163Z,18.80
2023-03-24T20:57:31.339Z,16.42
2023-03-24T20:59:59.829Z,17.10
2023-03-24T21:02:28.582Z,16.80
2023-03-24T21:04:57.256Z,15.18
2023-03-24T21:07:25.788Z,17.13
2023-03-24T21:09:54.256Z,16.85
2023-03-24T21:12:26.970Z,19.98
2023-03-24T21:14:56.362Z,16.60
2023-03-24T21:17:32.594Z,15.32
2023-03-24T21:20:13.412Z,16.73
2023-03-24T21:22:53.409Z,16.33
2023-03-24T21:25:22.720Z,14.85
2023-03-24T21:27:52.685Z,18.67
2023-03-24T21:30:21.685Z,19.33
2023-03-24T21:32:50.976Z,15.77
2023-03-24T21:35:20.685Z,19.77
2023-03-24T21:37:49.604Z,14.20
2023-03-24T21:40:19.656Z,17.48
2023-03-24T21:42:50.095Z,18.95
2023-03-24T21:45:20.766Z,20.05
2023-03-24T21:47:49.864Z,16.83
2023-03-24T21:50:23.158Z,19.73
2023-03-24T21:52:52.892Z,22.23
2023-03-24T21:55:22.110Z,19.95
2023-03-24T21:57:51.982Z,19.80
2023-03-24T22:00:23.172Z,16.20
2023-03-24T22:02:52.681Z,17.30
2023-03-24T22:05:22.017Z,18.90
2023-03-24T22:07:50.848Z,20.27
2023-03-24T22:10:22.634Z,23.95
2023-03-24T22:12:51.426Z,18.23
2023-03-24T22:15:20.437Z,21.35
2023-03-24T22:17:50.855Z,21.40
2023-03-24T22:20:19.770Z,17.48
2023-03-24T22:22:48.312Z,19.05
2023-03-24T22:25:18.639Z,18.10
2023-03-24T22:27:50.639Z,17.02
2023-03-24T22:30:20.934Z,20.75
2023-03-24T22:32:50.510Z,19.48
2023-03-24T22:35:19.222Z,20.00
2023-03-24T22:37:47.760Z,15.57
2023-03-24T22:40:16.352Z,16.60
2023-03-24T22:42:44.787Z,14.23
2023-03-24T22:45:13.569Z,15.95
2023-03-24T22:47:42.078Z,15.15
2023-03-24T22:50:12.544Z,15.25
2023-03-24T22:52:41.097Z,18.58
2023-03-24T22:55:10.141Z,12.35
2023-03-24T22:57:38.600Z,13.60
2023-03-24T23:00:08.428Z,18.35
2023-03-24T23:02:36.922Z,14.40
2023-03-24T23:05:05.761Z,12.23
2023-03-24T23:07:35.599Z,11.18
2023-03-24T23:10:06.422Z,13.68
2023-03-24T23:12:36.717Z,11.43
2023-03-24T23:15:05.418Z,11.18
2023-03-24T23:17:34.026Z,12.10
2023-03-24T23:20:06.068Z,12.93
2023-03-24T23:22:38.332Z,12.73
2023-03-24T23:25:07.424Z,12.65
2023-03-24T23:27:36.921Z,12.30
2023-03-24T23:30:07.163Z,12.82
2023-03-24T23:32:36.786Z,12.32
2023-03-24T23:35:05.726Z,14.63
2023-03-24T23:37:35.239Z,13.57
2023-03-24T23:40:07.459Z,17.35
2023-03-24T23:42:36.142Z,12.52
2023-03-24T23:45:05.004Z,12.35
2023-03-24T23:47:34.745Z,14.65
2023-03-24T23:50:03.209Z,13.57
2023-03-24T23:52:31.862Z,9.45
2023-03-24T23:55:02.178Z,10.18
2023-03-24T23:57:32.804Z,11.50
